Ana Sayfa
METAR-TAF:

METAR-TAF

Havaalanları :

Cuenca, Ekvador

Enlem: 02-53-22S, Boylam: 078-59-04W, yükseklik: 2532 m

Güncel hava durumu gözlemi

Rapor saat 10:30 UTC de 22 dakika önce yapıldı.
Rüzgar güneybatıdan 3 kt
Sıcaklık 11°C
Nem 87%
Basınç 1026 hPa
Görüş mesafesi 10 km veya daha fazla
1000 ft yükseklikte parçalı bulutlu
3000 ft yükseklikte parçalı çok bulutlu

METAR: SECU 291030Z 23003KT 9999 SCT010 BKN030 11/09 Q1026

Saat: 05:52 (10:52 UTC)


TAF: eksik

4.000'den fazla havaalanı için hava durumu gözlemleri ve tahminleri (METAR ve TAF raporları).

Kullanılabilir istasyonlar harita üzerinde sarı ve kırmızı noktalarla gösterilir.

İstasyonun adını görmek için fareyi noktanın üzerinde gezdirin.

Sonrasında hava gözlem ve tahminlerini görmek için tıklayın.

Haritayı değiştirmek için: yaklaştırmak için siyah artı işaretli yeşil düğmeye ve uzaklaştırmak için de eksi işaretli düğmeye hızla tıklayın; bitişik haritalar için yeşil okları kullanın.


METAR-TAF: